Time;durP1;ratioP1;P1;durP2;ratioP2;P2;SDS_P1;SDS_P2;PMS_P1;PMS_P2;Temp;Humidity;BMP_temperature;BMP_pressure;BME280_temperature;BME280_humidity;BME280_pressure;Samples;Min_cycle;Max_cycle;Signal;HPM_P1;HPM_P2
2022/04/22 00:01:14;;;;;;;;;11.00;11.00;;;;;15.06;51.92;97516.19;5070056;28;45548;-63
2022/04/22 00:03:40;;;;;;;;;8.25;7.50;;;;;15.03;51.71;97527.06;5078014;28;45430;-62
2022/04/22 00:06:05;;;;;;;;;10.25;10.25;;;;;15.01;52.19;97521.03;5071228;27;45365;-63
2022/04/22 00:08:31;;;;;;;;;11.25;10.50;;;;;14.99;51.90;97529.13;5073853;28;46485;-62
2022/04/22 00:13:41;;;;;;;;;7.75;7.75;;;;;14.93;51.11;97524.31;5076473;28;45482;-63
2022/04/22 00:16:07;;;;;;;;;11.25;8.50;;;;;14.86;51.40;97515.19;5073124;27;45393;-62
2022/04/22 00:18:33;;;;;;;;;8.75;8.75;;;;;14.82;51.98;97519.06;5077314;27;45688;-63
2022/04/22 00:20:59;;;;;;;;;14.25;13.00;;;;;14.80;52.60;97522.81;5073518;27;45642;-62
2022/04/22 00:23:26;;;;;;;;;8.50;8.50;;;;;14.77;51.54;97529.19;5076485;27;45416;-63
2022/04/22 00:25:52;;;;;;;;;10.50;9.25;;;;;14.73;51.68;97527.78;5070409;28;45500;-63
2022/04/22 00:28:18;;;;;;;;;12.00;11.00;;;;;14.68;52.05;97529.97;5076464;28;46149;-62
2022/04/22 00:30:44;;;;;;;;;11.25;10.50;;;;;14.63;52.59;97522.38;5074994;27;45599;-62
2022/04/22 00:33:10;;;;;;;;;10.25;9.25;;;;;14.60;52.11;97519.13;5076883;27;45420;-62
2022/04/22 00:35:35;;;;;;;;;11.00;11.00;;;;;14.56;51.75;97518.56;5074697;27;45331;-62
2022/04/22 00:38:01;;;;;;;;;16.75;11.00;;;;;14.53;52.90;97526.75;5076700;28;46174;-62
2022/04/22 00:40:26;;;;;;;;;10.00;10.00;;;;;14.53;52.73;97525.91;5072141;28;45721;-62
2022/04/22 00:42:51;;;;;;;;;13.25;12.50;;;;;14.52;53.08;97524.22;5076676;28;45254;-63
2022/04/22 00:45:19;;;;;;;;;10.00;10.00;;;;;14.50;53.22;97519.06;5074484;27;45386;-62
2022/04/22 00:47:45;;;;;;;;;22.67;20.67;;;;;14.48;54.43;97520.13;5076645;27;46380;-62
2022/04/22 00:50:11;;;;;;;;;21.67;20.00;;;;;14.42;54.68;97528.59;5066731;27;45485;-62
2022/04/22 00:52:37;;;;;;;;;11.00;10.00;;;;;14.36;53.23;97518.47;5076749;27;45441;-62
2022/04/22 00:55:04;;;;;;;;;11.75;11.50;;;;;14.32;53.98;97521.34;5065815;28;45362;-62
2022/04/22 00:57:32;;;;;;;;;12.25;10.00;;;;;14.31;53.61;97521.47;5076900;27;46207;-62
2022/04/22 00:59:58;;;;;;;;;10.50;9.50;;;;;14.28;53.74;97519.06;5074639;27;45370;-63
2022/04/22 01:02:23;;;;;;;;;11.00;10.25;;;;;14.27;53.50;97527.97;5076777;27;45472;-62
2022/04/22 01:10:17;;;;;;;;;8.50;8.50;;;;;14.14;53.56;97522.81;5068785;28;45424;-62
2022/04/22 01:12:43;;;;;;;;;9.75;9.50;;;;;14.11;53.92;97517.78;5076877;27;45352;-62
2022/04/22 01:15:09;;;;;;;;;11.00;10.25;;;;;14.09;54.73;97517.03;5070761;27;45424;-63
2022/04/22 01:17:34;;;;;;;;;8.25;7.00;;;;;14.04;55.33;97515.75;5076472;27;45483;-62
2022/04/22 01:20:00;;;;;;;;;18.00;16.67;;;;;13.95;55.98;97522.59;5071769;28;45586;-62
2022/04/22 01:22:27;;;;;;;;;30.33;27.33;;;;;13.92;56.13;97522.84;5075204;28;45444;-62
2022/04/22 01:25:02;;;;;;;;;28.00;24.67;;;;;13.88;56.25;97524.06;5073016;27;45503;-63
2022/04/22 01:27:31;;;;;;;;;30.00;29.67;;;;;13.83;56.94;97527.06;5068224;28;46183;-63
2022/04/22 01:29:57;;;;;;;;;7.33;5.00;;;;;13.79;58.00;97530.91;5073989;27;45580;-63
2022/04/22 01:32:25;;;;;;;;;19.33;18.00;;;;;13.75;57.13;97532.13;5075988;27;45529;-63
2022/04/22 01:34:50;;;;;;;;;17.67;14.00;;;;;13.72;58.09;97528.88;5074559;28;45570;-62
2022/04/22 01:37:16;;;;;;;;;14.67;13.00;;;;;13.69;58.48;97523.81;5069451;28;45920;-63
2022/04/22 01:39:41;;;;;;;;;14.75;13.25;;;;;13.65;58.30;97525.00;5072414;28;45452;-62
2022/04/22 01:42:07;;;;;;;;;12.75;12.25;;;;;13.58;58.37;97528.13;5069231;28;45602;-62
2022/04/22 01:44:35;;;;;;;;;15.00;11.67;;;;;13.52;59.53;97525.97;5072372;27;45541;-62
2022/04/22 01:47:02;;;;;;;;;15.00;13.75;;;;;13.46;60.02;97529.09;5075681;28;45467;-62
2022/04/22 01:49:27;;;;;;;;;14.67;13.67;;;;;13.39;60.16;97519.09;5071679;27;45427;-62
2022/04/22 01:51:54;;;;;;;;;16.33;13.00;;;;;13.36;60.48;97520.19;5072431;28;45407;-62
2022/04/22 01:54:20;;;;;;;;;13.00;13.00;;;;;13.34;60.67;97518.59;5073180;28;45451;-63
2022/04/22 01:56:46;;;;;;;;;10.00;10.00;;;;;13.32;61.35;97526.66;5070477;28;45932;-62
2022/04/22 01:59:11;;;;;;;;;13.00;13.00;;;;;13.31;61.59;97524.97;5072339;28;45377;-62
2022/04/22 02:01:36;;;;;;;;;12.67;12.67;;;;;13.30;61.60;97527.75;5071861;27;45672;-62
2022/04/22 02:04:02;;;;;;;;;12.75;11.75;;;;;13.28;61.57;97528.69;5075217;28;45179;-62
2022/04/22 02:06:28;;;;;;;;;13.67;13.00;;;;;13.26;61.71;97524.47;5071164;28;45591;-62
2022/04/22 02:08:54;;;;;;;;;12.67;11.67;;;;;13.24;61.78;97521.09;5068791;27;45258;-62
2022/04/22 02:11:19;;;;;;;;;15.00;14.00;;;;;13.20;61.89;97523.16;5071830;28;45523;-62
2022/04/22 02:13:45;;;;;;;;;14.00;12.33;;;;;13.19;62.06;97523.28;5075384;28;45423;-62
2022/04/22 02:16:11;;;;;;;;;13.00;13.00;;;;;13.15;62.42;97517.38;5075121;27;46195;-62
2022/04/22 02:18:37;;;;;;;;;16.00;14.67;;;;;13.13;62.41;97521.06;5075482;28;45478;-62
2022/04/22 02:21:06;;;;;;;;;13.67;13.00;;;;;13.10;62.54;97519.47;5072241;27;45385;-62
2022/04/22 02:23:33;;;;;;;;;13.67;12.00;;;;;13.07;62.45;97522.34;5061361;28;45405;-62
2022/04/22 02:25:58;;;;;;;;;12.00;12.00;;;;;13.05;62.11;97520.81;5066065;28;45595;-62
2022/04/22 02:28:34;;;;;;;;;13.67;12.67;;;;;13.00;62.55;97521.13;5075626;27;45448;-62
2022/04/22 02:31:06;;;;;;;;;17.00;14.00;;;;;12.95;63.26;97512.69;5064140;27;45365;-62
2022/04/22 02:33:35;;;;;;;;;18.00;13.33;;;;;12.93;63.44;97520.75;5075124;28;45343;-62
2022/04/22 02:36:01;;;;;;;;;17.00;15.33;;;;;12.92;63.59;97518.22;5059151;27;46054;-63
2022/04/22 02:38:30;;;;;;;;;14.33;12.67;;;;;12.91;64.30;97513.88;5074989;27;45519;-62
2022/04/22 02:46:24;;;;;;;;;15.67;15.67;;;;;12.82;64.21;97518.06;5066055;28;45421;-63
2022/04/22 02:48:51;;;;;;;;;11.67;11.67;;;;;12.79;64.07;97518.31;5090283;27;45400;-63
2022/04/22 02:51:18;;;;;;;;;14.33;13.00;;;;;12.79;63.92;97517.44;5066106;27;45481;-63
2022/04/22 02:53:43;;;;;;;;;15.33;15.33;;;;;12.78;63.95;97521.91;5089680;27;45571;-63
2022/04/22 02:56:09;;;;;;;;;15.33;14.00;;;;;12.77;63.82;97520.22;5068878;28;45531;-62
2022/04/22 02:58:36;;;;;;;;;17.00;16.67;;;;;12.76;64.03;97526.44;5089941;27;45472;-63
2022/04/22 03:01:02;;;;;;;;;17.00;14.33;;;;;12.75;63.96;97527.41;5066268;27;45482;-63
2022/04/22 03:03:28;;;;;;;;;15.67;15.00;;;;;12.70;64.15;97521.63;5074672;27;45503;-63
2022/04/22 03:05:54;;;;;;;;;20.33;16.67;;;;;12.63;64.47;97528.31;5072262;27;45409;-62
2022/04/22 03:08:19;;;;;;;;;17.33;17.00;;;;;12.57;64.39;97526.97;5074242;28;45394;-63
2022/04/22 03:10:45;;;;;;;;;15.33;13.33;;;;;12.53;65.60;97525.53;5068450;27;45375;-62
2022/04/22 03:13:10;;;;;;;;;13.00;13.00;;;;;12.49;65.17;97525.84;5074215;27;45586;-63
2022/04/22 03:15:36;;;;;;;;;16.33;14.00;;;;;12.45;65.04;97530.53;5071899;28;46689;-63
2022/04/22 03:18:02;;;;;;;;;13.67;12.33;;;;;12.43;64.87;97531.59;5072525;27;45558;-63
2022/04/22 03:20:28;;;;;;;;;14.33;14.33;;;;;12.42;65.03;97532.53;5070265;27;45514;-63
2022/04/22 03:22:53;;;;;;;;;13.00;12.67;;;;;12.38;65.04;97533.75;5073350;28;45291;-63
2022/04/22 03:25:20;;;;;;;;;14.67;13.00;;;;;12.37;65.37;97529.41;5071100;27;46628;-63
2022/04/22 03:27:46;;;;;;;;;11.00;11.00;;;;;12.36;65.24;97528.56;5072581;28;45438;-62
2022/04/22 03:30:12;;;;;;;;;14.67;14.33;;;;;12.34;65.99;97527.81;5063874;28;45528;-62
2022/04/22 03:32:38;;;;;;;;;15.00;15.00;;;;;12.32;66.48;97526.25;5069983;28;45492;-62
2022/04/22 03:35:05;;;;;;;;;12.33;11.00;;;;;12.31;66.35;97521.91;5066027;27;45476;-63
2022/04/22 03:37:31;;;;;;;;;13.67;13.00;;;;;12.29;66.36;97524.66;5070910;27;45360;-63
2022/04/22 03:39:57;;;;;;;;;17.33;16.67;;;;;12.27;66.44;97520.44;5057636;28;45376;-62
2022/04/22 03:42:23;;;;;;;;;18.00;16.33;;;;;12.24;66.34;97513.56;5073785;27;45383;-62
2022/04/22 03:44:48;;;;;;;;;16.00;15.33;;;;;12.22;66.49;97515.50;5058892;28;45502;-63
2022/04/22 03:47:14;;;;;;;;;17.33;14.33;;;;;12.20;66.27;97512.97;5066682;28;45611;-63
2022/04/22 03:49:39;;;;;;;;;14.00;13.00;;;;;12.21;66.90;97519.09;5077154;28;45359;-63
2022/04/22 03:52:05;;;;;;;;;16.67;16.67;;;;;12.22;67.00;97510.22;5077487;28;45596;-63
2022/04/22 03:54:30;;;;;;;;;16.67;16.33;;;;;12.18;67.25;97506.97;5074624;27;45444;-63
2022/04/22 03:59:40;;;;;;;;;17.67;16.00;;;;;12.14;67.62;97510.75;5074596;28;45390;-62
2022/04/22 04:02:07;;;;;;;;;18.33;16.00;;;;;12.11;67.73;97507.50;5076898;27;45357;-62
2022/04/22 04:04:33;;;;;;;;;16.00;14.67;;;;;12.12;67.41;97515.31;5075183;28;46127;-62
2022/04/22 04:06:58;;;;;;;;;13.00;12.00;;;;;12.13;67.59;97509.06;5073983;28;45423;-62
2022/04/22 04:17:40;;;;;;;;;16.67;15.33;;;;;12.19;67.68;97507.81;5076657;28;45461;-62
2022/04/22 04:25:35;;;;;;;;;19.67;18.33;;;;;12.19;67.41;97505.16;5075356;28;45379;-62
2022/04/22 04:28:02;;;;;;;;;21.67;20.33;;;;;12.19;66.86;97510.44;5092638;27;45249;-62
2022/04/22 04:30:27;;;;;;;;;22.67;20.67;;;;;12.20;66.80;97509.50;5066624;28;45371;-62
2022/04/22 04:32:53;;;;;;;;;22.33;20.67;;;;;12.19;67.13;97511.28;5073463;28;45691;-63
2022/04/22 04:35:18;;;;;;;;;20.67;19.00;;;;;12.19;67.33;97511.28;5075229;27;46154;-63
2022/04/22 04:37:44;;;;;;;;;18.33;16.00;;;;;12.18;67.17;97512.25;5075520;28;45373;-62
2022/04/22 04:40:10;;;;;;;;;16.33;15.00;;;;;12.18;67.14;97514.03;5071083;28;45297;-62
2022/04/22 04:42:36;;;;;;;;;15.67;15.67;;;;;12.17;67.51;97509.69;5076362;28;45411;-62
2022/04/22 04:45:01;;;;;;;;;15.67;14.67;;;;;12.16;67.60;97516.78;5072971;27;45364;-63
2022/04/22 04:47:27;;;;;;;;;15.67;15.67;;;;;12.17;67.41;97518.47;5076396;27;45376;-62
2022/04/22 04:49:52;;;;;;;;;16.67;15.33;;;;;12.18;67.57;97516.69;5071997;28;45532;-62
2022/04/22 04:52:18;;;;;;;;;20.33;16.00;;;;;12.18;67.65;97514.03;5072710;28;45388;-63
2022/04/22 04:54:43;;;;;;;;;22.00;19.00;;;;;12.19;67.75;97526.28;5074511;28;45444;-62
2022/04/22 04:57:09;;;;;;;;;15.00;12.33;;;;;12.19;67.80;97521.00;5074502;28;45483;-62
2022/04/22 04:59:34;;;;;;;;;20.33;16.67;;;;;12.20;67.59;97517.41;5089485;27;45275;-62
2022/04/22 05:02:00;;;;;;;;;18.00;14.00;;;;;12.21;67.65;97525.22;5073176;28;45443;-63
2022/04/22 05:04:25;;;;;;;;;19.00;16.00;;;;;12.20;67.81;97526.19;5073948;28;45392;-62
2022/04/22 05:06:51;;;;;;;;;17.67;17.67;;;;;12.21;67.80;97533.16;5072254;28;45319;-63
2022/04/22 05:09:16;;;;;;;;;14.67;14.67;;;;;12.22;68.10;97532.22;5073959;27;45364;-62
2022/04/22 05:11:42;;;;;;;;;16.33;16.33;;;;;12.21;67.78;97525.22;5072294;28;45480;-62
2022/04/22 05:14:07;;;;;;;;;13.00;13.00;;;;;12.24;67.97;97534.72;5073566;27;46027;-62
2022/04/22 05:16:33;;;;;;;;;15.67;13.67;;;;;12.27;68.04;97538.94;5071186;28;45377;-62
2022/04/22 05:18:58;;;;;;;;;17.67;15.67;;;;;12.31;67.82;97535.13;5075359;27;45408;-62
2022/04/22 05:21:24;;;;;;;;;26.33;25.33;;;;;12.32;67.73;97539.47;5074033;28;45439;-62
2022/04/22 05:23:49;;;;;;;;;16.00;16.00;;;;;12.34;67.41;97541.03;5075530;28;45688;-62
2022/04/22 05:26:15;;;;;;;;;19.00;17.00;;;;;12.39;67.52;97535.44;5080276;27;45495;-63
2022/04/22 05:28:41;;;;;;;;;15.00;15.00;;;;;12.42;67.55;97538.66;5075145;28;45372;-62
2022/04/22 05:33:51;;;;;;;;;17.00;16.33;;;;;12.44;67.75;97542.03;5075208;28;45825;-62
2022/04/22 05:36:20;;;;;;;;;16.33;15.33;;;;;12.43;67.79;97539.50;5062406;28;45502;-62
2022/04/22 05:38:45;;;;;;;;;19.33;18.67;;;;;12.42;67.72;97538.66;5075085;27;45385;-62
2022/04/22 05:41:11;;;;;;;;;17.67;16.00;;;;;12.45;67.86;97543.72;5064555;27;45474;-63
2022/04/22 05:43:37;;;;;;;;;22.00;20.00;;;;;12.45;67.98;97545.53;5074624;28;45426;-63
2022/04/22 05:46:03;;;;;;;;;15.00;14.00;;;;;12.43;67.77;97544.78;5065470;27;45425;-63
2022/04/22 05:48:28;;;;;;;;;17.67;17.33;;;;;12.41;67.66;97552.84;5072875;28;45602;-63
2022/04/22 05:50:55;;;;;;;;;15.00;15.00;;;;;12.43;67.64;97545.63;5068019;28;45369;-63
2022/04/22 05:53:20;;;;;;;;;16.67;16.33;;;;;12.48;67.73;97558.53;5074548;27;46320;-62
2022/04/22 05:55:46;;;;;;;;;23.67;21.00;;;;;12.52;67.69;97552.06;5066871;28;45504;-62
2022/04/22 05:58:11;;;;;;;;;16.67;16.67;;;;;12.54;67.40;97556.28;5075051;27;45438;-62
2022/04/22 06:00:37;;;;;;;;;19.67;16.00;;;;;12.55;67.24;97550.06;5089634;27;45544;-63
2022/04/22 06:03:02;;;;;;;;;21.67;17.67;;;;;12.59;67.41;97553.28;5073140;28;46404;-62
2022/04/22 06:05:29;;;;;;;;;23.33;20.00;;;;;12.64;67.64;97552.97;5072602;27;45522;-62
2022/04/22 06:10:40;;;;;;;;;27.00;21.67;;;;;12.74;67.12;97557.44;5071811;28;45447;-62
2022/04/22 06:13:06;;;;;;;;;21.00;19.33;;;;;12.78;67.12;97556.28;5074356;28;45456;-62
2022/04/22 06:15:32;;;;;;;;;21.67;17.00;;;;;12.82;66.93;97557.75;5072008;27;45670;-62
2022/04/22 06:17:59;;;;;;;;;23.00;20.33;;;;;12.89;66.67;97558.16;5074056;27;45387;-62
2022/04/22 06:20:25;;;;;;;;;20.67;20.33;;;;;12.93;66.65;97554.28;5074260;27;45527;-62
2022/04/22 06:22:51;;;;;;;;;21.00;17.33;;;;;12.97;66.37;97558.41;5072877;27;45478;-62
2022/04/22 06:25:16;;;;;;;;;17.33;16.00;;;;;13.01;66.14;97557.22;5060934;28;45451;-62
2022/04/22 06:27:44;;;;;;;;;25.67;22.67;;;;;13.05;66.08;97556.03;5073375;28;45439;-62
2022/04/22 06:30:18;;;;;;;;;21.00;20.67;;;;;13.08;65.72;97558.44;5071993;27;45393;-62
2022/04/22 06:32:46;;;;;;;;;22.00;20.33;;;;;13.12;65.65;97561.69;5071543;28;46745;-62
2022/04/22 06:35:13;;;;;;;;;20.33;19.33;;;;;13.12;65.55;97553.75;5070239;28;45381;-62
2022/04/22 06:37:46;;;;;;;;;20.00;18.00;;;;;13.13;65.46;97556.28;5068787;28;45549;-62
2022/04/22 06:45:46;;;;;;;;;17.00;17.00;;;;;13.15;64.97;97558.84;5068067;28;45757;-62
2022/04/22 06:48:35;;;;;;;;;19.00;18.33;;;;;13.16;64.99;97558.75;5073876;27;45409;-60
2022/04/22 06:51:03;;;;;;;;;16.67;15.67;;;;;13.19;64.89;97561.16;5068245;27;45412;-59
2022/04/22 06:53:29;;;;;;;;;20.00;20.00;;;;;13.19;64.80;97570.91;5066265;28;46135;-60
2022/04/22 06:55:58;;;;;;;;;21.33;18.00;;;;;13.19;64.67;97568.25;5068046;28;45349;-60
2022/04/22 06:58:26;;;;;;;;;21.00;18.67;;;;;13.20;64.72;97567.31;5073276;27;45461;-60
2022/04/22 07:00:52;;;;;;;;;20.33;19.33;;;;;13.23;64.67;97575.00;5065749;27;45513;-60
2022/04/22 07:03:18;;;;;;;;;21.50;17.00;;;;;13.24;64.62;97572.22;5072963;28;46736;-60
2022/04/22 07:05:47;;;;;;;;;20.33;20.33;;;;;13.25;64.40;97575.72;5067633;27;45500;-60
2022/04/22 07:08:13;;;;;;;;;18.00;18.00;;;;;13.28;64.38;97575.50;5068532;27;45468;-61
2022/04/22 07:10:40;;;;;;;;;22.00;20.67;;;;;13.31;64.56;97577.91;5068802;27;45605;-61
2022/04/22 07:13:06;;;;;;;;;21.00;18.25;;;;;13.30;64.14;97573.56;5072018;27;46074;-61
2022/04/22 07:15:32;;;;;;;;;23.33;22.00;;;;;13.30;64.11;97573.56;5070578;27;45343;-60
2022/04/22 07:17:57;;;;;;;;;21.33;20.67;;;;;13.30;64.20;97578.03;5072892;27;45433;-60
2022/04/22 07:20:23;;;;;;;;;22.33;19.33;;;;;13.34;64.09;97576.84;5068861;28;45342;-61
2022/04/22 07:22:49;;;;;;;;;25.33;23.00;;;;;13.40;64.04;97573.75;5069613;28;46530;-60
2022/04/22 07:25:16;;;;;;;;;20.33;18.00;;;;;13.46;64.10;97584.69;5073050;27;45395;-61
2022/04/22 07:27:46;;;;;;;;;24.00;22.67;;;;;13.55;64.04;97577.84;5071386;28;45437;-61
2022/04/22 07:30:14;;;;;;;;;22.33;20.00;;;;;13.62;63.68;97582.53;5073208;27;45383;-61
2022/04/22 07:32:40;;;;;;;;;18.67;18.67;;;;;13.73;64.04;97583.53;5072193;28;46643;-61
2022/04/22 07:35:11;;;;;;;;;17.67;16.67;;;;;13.82;63.13;97586.31;5071965;28;45439;-61
2022/04/22 07:37:40;;;;;;;;;21.00;19.67;;;;;13.91;63.08;97590.03;5077716;28;45244;-61
2022/04/22 07:40:07;;;;;;;;;28.00;21.33;;;;;13.90;62.58;97586.56;5073280;27;45786;-61
2022/04/22 07:42:34;;;;;;;;;15.67;14.33;;;;;13.94;62.80;97588.00;5073154;28;45473;-60
2022/04/22 07:47:47;;;;;;;;;22.00;19.00;;;;;14.08;62.10;97576.31;5075893;28;45472;-61
2022/04/22 07:50:13;;;;;;;;;22.00;20.00;;;;;14.16;62.17;97581.84;5070781;28;45298;-61
2022/04/22 07:52:39;;;;;;;;;23.33;22.00;;;;;14.26;62.13;97579.31;5076563;27;46405;-61
2022/04/22 07:55:05;;;;;;;;;19.33;19.00;;;;;14.36;62.01;97582.94;5069800;27;45380;-61
2022/04/22 07:57:30;;;;;;;;;23.50;23.50;;;;;14.47;61.86;97577.63;5077172;28;45345;-61
2022/04/22 07:59:57;;;;;;;;;18.33;17.33;;;;;14.54;61.20;97575.34;5068922;27;45483;-61
2022/04/22 08:02:23;;;;;;;;;21.33;20.33;;;;;14.58;61.55;97582.06;5076306;28;46066;-61
2022/04/22 08:04:49;;;;;;;;;20.00;20.00;;;;;14.65;61.20;97575.31;5071448;27;45459;-61
2022/04/22 08:07:15;;;;;;;;;20.67;20.00;;;;;14.76;61.12;97579.72;5072514;28;45427;-61
2022/04/22 08:09:41;;;;;;;;;23.00;23.00;;;;;14.81;60.93;97575.75;5072811;28;45495;-61
2022/04/22 08:12:08;;;;;;;;;23.00;21.00;;;;;14.91;61.02;97573.19;5073937;28;45611;-61
2022/04/22 08:14:34;;;;;;;;;23.00;22.33;;;;;15.01;60.92;97566.97;5073658;27;45370;-61
2022/04/22 08:17:00;;;;;;;;;23.67;21.00;;;;;15.12;60.54;97567.91;5075170;28;45484;-61
2022/04/22 08:19:25;;;;;;;;;26.67;25.33;;;;;15.16;60.04;97564.88;5074259;27;45337;-61
2022/04/22 08:21:52;;;;;;;;;20.33;20.00;;;;;15.23;60.15;97562.56;5067146;28;45526;-61
2022/04/22 08:24:18;;;;;;;;;25.33;22.00;;;;;15.29;60.15;97560.19;5074590;27;45554;-61
2022/04/22 08:26:44;;;;;;;;;23.33;20.67;;;;;15.38;60.00;97561.25;5076488;27;45429;-61
2022/04/22 08:29:09;;;;;;;;;21.67;20.67;;;;;15.48;59.71;97567.47;5074966;28;45452;-61
2022/04/22 08:31:35;;;;;;;;;26.00;24.00;;;;;15.55;59.58;97555.38;5067260;28;45627;-61
2022/04/22 08:34:00;;;;;;;;;22.67;22.67;;;;;15.58;59.14;97560.44;5074827;28;45355;-61
2022/04/22 08:36:31;;;;;;;;;19.50;16.25;;;;;15.65;59.07;97560.75;5069582;28;45318;-61
2022/04/22 08:38:57;;;;;;;;;28.00;22.33;;;;;15.71;58.66;97554.91;5076348;27;45517;-61
2022/04/22 08:41:23;;;;;;;;;18.00;17.67;;;;;15.78;58.35;97557.88;5068074;28;46583;-61
2022/04/22 08:43:53;;;;;;;;;21.50;21.00;;;;;15.81;58.38;97546.97;5076147;27;45322;-61
2022/04/22 08:51:48;;;;;;;;;31.33;21.33;;;;;15.96;57.92;97545.66;5071150;28;45362;-61
2022/04/22 08:54:15;;;;;;;;;25.00;22.33;;;;;16.04;58.13;97548.50;5073474;27;45791;-61
2022/04/22 08:56:40;;;;;;;;;28.00;27.67;;;;;16.15;57.55;97542.22;5071024;28;45454;-61
2022/04/22 08:59:06;;;;;;;;;42.67;37.33;;;;;16.25;57.42;97540.47;5073347;27;45384;-61
2022/04/22 09:01:31;;;;;;;;;24.33;24.00;;;;;16.35;57.18;97538.66;5072937;27;45466;-61
2022/04/22 09:03:57;;;;;;;;;24.33;22.67;;;;;16.47;56.43;97542.88;5076097;28;45417;-61
2022/04/22 09:06:25;;;;;;;;;26.00;24.75;;;;;16.59;56.92;97539.13;5069666;28;45508;-62
2022/04/22 09:08:51;;;;;;;;;32.00;27.00;;;;;16.74;55.96;97539.63;5074976;28;45586;-61
2022/04/22 09:11:17;;;;;;;;;27.00;24.00;;;;;16.88;55.93;97535.69;5070287;28;46383;-61
2022/04/22 09:13:42;;;;;;;;;18.25;17.00;;;;;17.00;55.38;97526.59;5075182;28;45325;-61
2022/04/22 09:16:18;;;;;;;;;29.67;28.33;;;;;17.13;54.01;97528.94;5072994;27;45522;-61
2022/04/22 09:18:45;;;;;;;;;21.00;20.25;;;;;17.24;53.42;97528.81;5076171;27;45363;-61
2022/04/22 09:21:15;;;;;;;;;24.00;22.00;;;;;17.38;52.72;97531.03;5073550;28;46122;-61
2022/04/22 09:23:40;;;;;;;;;28.67;27.00;;;;;17.49;51.83;97524.69;5074991;27;45392;-61
2022/04/22 09:26:24;;;;;;;;;29.67;29.33;;;;;17.61;51.72;97528.88;5070377;28;45375;-62
2022/04/22 09:28:57;;;;;;;;;28.75;22.75;;;;;17.74;51.40;97524.97;5071117;28;45400;-61
2022/04/22 09:31:24;;;;;;;;;26.33;24.00;;;;;17.82;49.33;97520.72;5069553;28;45607;-62
2022/04/22 09:33:50;;;;;;;;;23.75;23.75;;;;;17.87;49.39;97521.97;5075064;27;45463;-61
2022/04/22 09:44:59;;;;;;;;;21.75;19.25;;;;;18.22;48.89;97513.25;5068655;28;45442;-61
2022/04/22 09:47:30;;;;;;;;;8.00;7.00;;;;;18.33;48.52;97512.19;5071934;28;45343;-62
2022/04/22 09:49:56;;;;;;;;;23.25;20.75;;;;;18.38;48.19;97508.09;5069309;27;45431;-62
2022/04/22 09:52:29;;;;;;;;;20.00;18.50;;;;;18.42;48.18;97504.16;5074664;28;45599;-61
2022/04/22 09:54:57;;;;;;;;;18.50;17.75;;;;;18.44;48.04;97506.63;5087471;27;45432;-61
2022/04/22 09:57:24;;;;;;;;;18.50;15.00;;;;;18.48;47.79;97508.03;5090807;27;45426;-61
2022/04/22 09:59:51;;;;;;;;;17.75;16.00;;;;;18.60;47.83;97501.50;5071781;27;45478;-61
2022/04/22 10:02:21;;;;;;;;;17.50;15.00;;;;;18.69;47.38;97494.44;5069669;27;45415;-62
2022/04/22 10:04:48;;;;;;;;;18.75;16.25;;;;;18.78;47.13;97494.34;5072433;27;45364;-62
2022/04/22 10:07:16;;;;;;;;;17.25;16.25;;;;;18.81;46.60;97499.38;5072117;27;45549;-61
2022/04/22 10:09:44;;;;;;;;;17.00;17.00;;;;;18.89;46.60;97498.66;5066224;28;45458;-62
2022/04/22 10:12:15;;;;;;;;;15.00;15.00;;;;;18.97;46.39;97495.19;5075057;27;45396;-62
2022/04/22 10:14:43;;;;;;;;;18.25;15.25;;;;;19.07;46.23;97495.97;5074598;28;45302;-62
2022/04/22 10:17:10;;;;;;;;;16.25;16.25;;;;;19.16;45.97;97495.88;5066911;28;45457;-62
2022/04/22 10:19:35;;;;;;;;;13.25;12.75;;;;;19.24;45.85;97491.59;5069264;28;45518;-62
2022/04/22 10:22:02;;;;;;;;;16.00;15.00;;;;;19.33;45.38;97493.31;5074934;28;45400;-61
2022/04/22 10:24:31;;;;;;;;;17.50;16.50;;;;;19.45;45.48;97490.22;5074273;28;45480;-62
2022/04/22 10:26:59;;;;;;;;;20.25;19.00;;;;;19.58;44.34;97489.84;5075232;28;45541;-62
2022/04/22 10:29:25;;;;;;;;;18.00;15.00;;;;;19.69;44.89;97486.06;5074743;28;45492;-62
2022/04/22 10:31:51;;;;;;;;;17.50;15.75;;;;;19.74;44.08;97486.44;5090515;27;47807;-62
2022/04/22 10:34:17;;;;;;;;;13.50;13.50;;;;;19.80;43.53;97481.28;5074977;27;45433;-62
2022/04/22 10:36:43;;;;;;;;;17.25;16.00;;;;;19.81;44.24;97482.13;5074291;27;45443;-62
2022/04/22 10:39:09;;;;;;;;;17.75;16.50;;;;;19.81;44.14;97480.28;5073941;28;45367;-62
2022/04/22 10:41:53;;;;;;;;;18.50;16.75;;;;;19.85;44.23;97473.63;5072835;28;45520;-62
2022/04/22 10:47:15;;;;;;;;;20.25;17.75;;;;;19.93;43.59;97467.50;5074406;28;45360;-62
2022/04/22 10:49:45;;;;;;;;;20.25;17.75;;;;;20.00;43.47;97460.47;5074662;28;45337;-62
2022/04/22 10:52:17;;;;;;;;;10.50;10.50;;;;;20.06;42.50;97459.84;5074285;27;45401;-62
2022/04/22 10:54:52;;;;;;;;;17.50;17.50;;;;;20.11;43.18;97451.31;5074288;27;45345;-62
2022/04/22 10:57:19;;;;;;;;;15.75;15.00;;;;;20.13;41.71;97447.47;5075430;27;45450;-62
2022/04/22 10:59:46;;;;;;;;;16.50;13.75;;;;;20.20;42.38;97445.84;5077949;28;45572;-62
2022/04/22 11:02:29;;;;;;;;;14.75;13.25;;;;;20.29;42.28;97437.81;5077756;27;46470;-62
2022/04/22 11:05:25;;;;;;;;;12.00;11.00;;;;;20.38;41.38;97443.09;5077904;28;45396;-62
2022/04/22 11:07:50;;;;;;;;;13.00;11.50;;;;;20.45;40.65;97433.38;5077922;28;45324;-62
2022/04/22 11:10:16;;;;;;;;;11.00;10.25;;;;;20.52;40.77;97434.41;5093463;27;45414;-61
2022/04/22 11:12:51;;;;;;;;;16.25;10.00;;;;;20.65;40.82;97435.75;5077823;27;45599;-62
2022/04/22 11:15:50;;;;;;;;;12.00;12.00;;;;;20.79;40.58;97437.75;5077436;28;45354;-62
2022/04/22 11:18:17;;;;;;;;;13.25;10.50;;;;;20.93;39.99;97431.78;5077501;27;45482;-61
2022/04/22 11:20:44;;;;;;;;;11.25;11.00;;;;;21.06;39.90;97420.53;5077621;27;45504;-62
2022/04/22 11:23:13;;;;;;;;;10.75;10.75;;;;;21.16;39.40;97424.69;5077307;27;45770;-62
2022/04/22 11:25:41;;;;;;;;;10.00;10.00;;;;;21.22;39.90;97409.81;5093469;27;45418;-62
2022/04/22 11:28:07;;;;;;;;;11.00;10.25;;;;;21.28;39.13;97411.84;5077740;28;45435;-60
2022/04/22 11:30:34;;;;;;;;;11.75;10.50;;;;;21.33;39.19;97411.31;5077285;27;45448;-62
2022/04/22 11:33:13;;;;;;;;;9.50;9.25;;;;;21.37;38.71;97407.28;5077252;27;45502;-60
2022/04/22 11:35:39;;;;;;;;;10.00;10.00;;;;;21.40;38.28;97402.44;5077270;27;45426;-61
2022/04/22 11:38:05;;;;;;;;;8.50;7.50;;;;;21.41;36.76;97404.09;5077362;27;45439;-61
2022/04/22 11:40:37;;;;;;;;;9.75;8.50;;;;;21.41;36.59;97405.94;5076930;27;45439;-61
2022/04/22 11:43:10;;;;;;;;;9.25;6.25;;;;;21.30;36.96;97408.97;5064800;28;45669;-60
2022/04/22 11:45:40;;;;;;;;;8.20;7.60;;;;;21.28;36.52;97405.66;5077222;27;45393;-61
2022/04/22 11:48:10;;;;;;;;;8.00;8.00;;;;;21.21;36.77;97406.31;5077442;28;45345;-61
2022/04/22 11:50:44;;;;;;;;;9.00;7.50;;;;;21.17;37.22;97404.94;5077042;27;45439;-61
2022/04/22 11:53:20;;;;;;;;;10.75;10.25;;;;;21.23;36.48;97398.09;5076645;27;46125;-61
2022/04/22 11:55:48;;;;;;;;;7.40;7.40;;;;;21.32;36.74;97399.75;5092711;27;45299;-61
2022/04/22 11:58:21;;;;;;;;;10.50;10.25;;;;;21.33;35.84;97390.69;5077058;27;45458;-61
2022/04/22 12:06:17;;;;;;;;;12.80;11.20;;;;;21.27;36.80;97391.41;5077020;28;45339;-61
2022/04/22 12:09:00;;;;;;;;;10.75;10.00;;;;;21.28;36.44;97386.88;5076481;27;45453;-61
2022/04/22 12:11:26;;;;;;;;;11.00;10.50;;;;;21.24;36.34;97381.84;5076740;27;45467;-61
2022/04/22 12:13:53;;;;;;;;;12.50;10.25;;;;;21.24;37.35;97384.53;5075545;28;47128;-61
2022/04/22 12:16:23;;;;;;;;;15.40;13.20;;;;;21.26;36.74;97383.53;5076372;27;45494;-61
2022/04/22 12:18:55;;;;;;;;;10.75;10.50;;;;;21.21;36.63;97387.56;5076938;27;45475;-61
2022/04/22 12:21:23;;;;;;;;;14.00;11.00;;;;;21.10;36.70;97390.56;5092408;27;45496;-61
2022/04/22 12:23:51;;;;;;;;;9.25;9.25;;;;;21.03;37.00;97384.19;5076369;27;46283;-61
2022/04/22 12:26:25;;;;;;;;;10.00;8.00;;;;;20.98;35.22;97388.38;5076287;27;45446;-61